Time;durP1;ratioP1;P1;durP2;ratioP2;P2;SDS_P1;SDS_P2;PMS_P1;PMS_P2;Temp;Humidity;BMP_temperature;BMP_pressure;BME280_temperature;BME280_humidity;BME280_pressure;Samples;Min_cycle;Max_cycle;Signal;HPM_P1;HPM_P2
2023/08/01 00:00:49;;;;;;;9.00;7.00;;;;;;;22.31;69.08;99963.41;105292;1254;60436;-63
2023/08/01 00:03:17;;;;;;;9.80;7.80;;;;;;;22.30;69.26;99956.75;105266;1256;63715;-65
2023/08/01 00:05:45;;;;;;;9.70;7.90;;;;;;;22.31;69.37;99960.75;105289;1256;61943;-59
2023/08/01 00:08:12;;;;;;;9.60;8.20;;;;;;;22.25;69.36;99960.23;105353;1256;63830;-62
2023/08/01 00:10:40;;;;;;;10.70;7.00;;;;;;;22.15;69.49;99960.92;105302;1256;60458;-61
2023/08/01 00:13:08;;;;;;;9.40;6.90;;;;;;;22.09;69.72;99959.94;105527;1256;60527;-62
2023/08/01 00:15:35;;;;;;;8.20;7.30;;;;;;;22.10;69.83;99959.33;105271;1260;64956;-61
2023/08/01 00:18:03;;;;;;;8.20;7.20;;;;;;;22.12;69.91;99959.23;105379;1256;61376;-64
2023/08/01 00:20:31;;;;;;;9.20;7.30;;;;;;;22.14;70.03;99957.80;105395;1256;63806;-64
2023/08/01 00:22:58;;;;;;;10.30;8.00;;;;;;;22.18;70.13;99953.73;105273;1257;60532;-68
2023/08/01 00:25:26;;;;;;;8.20;7.30;;;;;;;22.22;70.15;99951.66;105238;1259;60452;-69
2023/08/01 00:27:53;;;;;;;12.20;7.10;;;;;;;22.25;69.99;99945.56;105258;1260;65440;-69
2023/08/01 00:30:21;;;;;;;9.50;7.70;;;;;;;22.24;70.09;99938.67;105249;1255;61432;-67
2023/08/01 00:32:48;;;;;;;9.90;7.40;;;;;;;22.23;69.97;99940.91;105223;1260;63675;-68
2023/08/01 00:35:16;;;;;;;10.80;7.20;;;;;;;22.20;69.71;99940.80;105305;1256;60562;-67
2023/08/01 00:37:44;;;;;;;8.20;6.80;;;;;;;22.19;69.79;99940.91;105489;1255;60499;-70
2023/08/01 00:40:12;;;;;;;9.60;7.30;;;;;;;22.20;69.68;99943.05;105290;1256;64966;-68
2023/08/01 00:42:39;;;;;;;8.30;7.10;;;;;;;22.22;69.70;99943.88;105491;1256;61291;-66
2023/08/01 00:45:08;;;;;;;8.80;6.40;;;;;;;22.26;69.64;99941.69;105624;1255;66666;-69
2023/08/01 00:47:35;;;;;;;8.20;7.30;;;;;;;22.28;69.32;99939.71;105416;1254;60430;-67
2023/08/01 00:50:04;;;;;;;8.40;6.80;;;;;;;22.26;69.30;99941.73;105238;1260;60449;-67
2023/08/01 00:52:31;;;;;;;9.50;7.90;;;;;;;22.22;69.30;99944.90;105406;1260;64890;-67
2023/08/01 00:54:59;;;;;;;9.10;7.30;;;;;;;22.22;69.19;99944.16;105260;1256;61336;-65
2023/08/01 00:57:26;;;;;;;9.90;7.60;;;;;;;22.22;69.10;99943.09;105281;1258;62514;-65
2023/08/01 00:59:55;;;;;;;9.30;6.70;;;;;;;22.19;69.01;99944.58;105961;1256;60493;-64
2023/08/01 01:02:23;;;;;;;10.00;7.40;;;;;;;22.16;69.07;99939.70;105218;1256;61443;-64
2023/08/01 01:04:50;;;;;;;8.70;7.70;;;;;;;22.15;69.12;99938.62;105293;1256;64990;-64
2023/08/01 01:07:18;;;;;;;10.20;8.00;;;;;;;22.15;69.22;99937.34;105254;1260;61383;-64
2023/08/01 01:09:46;;;;;;;8.90;7.70;;;;;;;22.14;69.29;99936.71;105623;1258;62430;-65
2023/08/01 01:12:14;;;;;;;10.00;7.70;;;;;;;22.11;69.32;99931.98;105383;1260;60579;-65
2023/08/01 01:14:41;;;;;;;8.10;6.70;;;;;;;22.07;69.48;99931.42;105348;1256;60513;-66
2023/08/01 01:17:09;;;;;;;8.00;6.70;;;;;;;22.07;69.46;99927.14;105331;1255;65122;-65
2023/08/01 01:19:36;;;;;;;7.80;6.90;;;;;;;22.07;69.44;99927.05;105208;1260;60823;-63
2023/08/01 01:22:04;;;;;;;9.30;7.50;;;;;;;22.07;69.37;99927.91;105118;1256;62480;-65
2023/08/01 01:24:32;;;;;;;9.80;7.50;;;;;;;22.08;69.50;99927.88;105400;1258;60556;-65
2023/08/01 01:27:00;;;;;;;10.00;7.80;;;;;;;22.10;69.45;99929.55;105422;1261;61019;-65
2023/08/01 01:29:28;;;;;;;9.00;7.30;;;;;;;22.13;69.23;99925.10;105281;1254;64925;-65
2023/08/01 01:31:56;;;;;;;11.80;7.50;;;;;;;22.13;69.20;99925.42;105341;1261;60442;-66
2023/08/01 01:34:23;;;;;;;9.70;7.40;;;;;;;22.11;69.13;99929.59;105340;1256;62487;-62
2023/08/01 01:36:51;;;;;;;9.00;7.30;;;;;;;22.07;69.16;99929.04;105252;1257;60779;-66
2023/08/01 01:39:18;;;;;;;8.20;6.90;;;;;;;22.08;69.06;99928.53;105599;1256;60576;-65
2023/08/01 01:41:46;;;;;;;9.20;6.80;;;;;;;22.09;68.84;99926.18;105393;1254;65025;-66
2023/08/01 01:44:14;;;;;;;9.70;7.60;;;;;;;22.09;68.74;99927.27;105951;1260;62109;-65
2023/08/01 01:46:42;;;;;;;9.10;7.30;;;;;;;22.09;68.77;99926.80;105379;1256;63700;-64
2023/08/01 01:49:10;;;;;;;9.70;7.10;;;;;;;22.10;69.03;99929.60;105311;1262;60617;-64
2023/08/01 01:51:37;;;;;;;8.50;7.00;;;;;;;22.11;69.04;99934.14;105423;1259;60753;-63
2023/08/01 01:54:05;;;;;;;9.80;7.90;;;;;;;22.09;69.00;99938.02;105261;1256;64971;-65
2023/08/01 01:56:33;;;;;;;8.60;6.90;;;;;;;22.05;69.18;99936.54;105287;1260;61741;-65
2023/08/01 01:59:01;;;;;;;8.70;6.80;;;;;;;21.99;69.24;99934.15;105319;1259;63784;-65
2023/08/01 02:01:29;;;;;;;8.50;6.70;;;;;;;21.97;69.16;99932.23;105431;1256;61648;-65
2023/08/01 02:03:57;;;;;;;10.80;7.30;;;;;;;22.01;69.01;99930.70;105238;1256;60576;-65
2023/08/01 02:06:24;;;;;;;9.40;6.90;;;;;;;22.04;68.68;99932.33;105294;1261;64883;-61
2023/08/01 02:08:52;;;;;;;9.90;7.20;;;;;;;22.05;68.49;99931.55;105392;1255;61372;-65
2023/08/01 02:11:20;;;;;;;8.40;7.50;;;;;;;22.04;68.53;99931.46;105360;1259;64194;-65
2023/08/01 02:13:47;;;;;;;10.80;6.80;;;;;;;22.01;68.51;99934.03;105228;1256;60476;-63
2023/08/01 02:16:15;;;;;;;8.30;6.20;;;;;;;21.96;68.38;99937.41;105346;1255;60512;-65
2023/08/01 02:18:42;;;;;;;9.10;6.60;;;;;;;21.94;68.27;99931.58;105325;1256;63763;-61
2023/08/01 02:21:10;;;;;;;8.50;6.70;;;;;;;21.94;68.32;99934.08;105362;1260;60496;-64
2023/08/01 02:23:37;;;;;;;8.70;7.10;;;;;;;21.94;68.43;99933.75;105212;1256;62517;-64
2023/08/01 02:26:05;;;;;;;8.10;7.00;;;;;;;21.95;68.31;99933.45;105236;1256;60532;-65
2023/08/01 02:28:33;;;;;;;11.30;7.50;;;;;;;21.95;68.29;99931.94;105309;1256;60478;-65
2023/08/01 02:31:01;;;;;;;8.80;7.50;;;;;;;21.92;68.19;99933.41;105441;1256;64921;-65
2023/08/01 02:33:28;;;;;;;7.20;6.40;;;;;;;21.87;68.18;99934.30;105340;1256;61364;-64
2023/08/01 02:35:56;;;;;;;8.00;6.40;;;;;;;21.83;68.42;99933.15;105260;1256;63851;-66
2023/08/01 02:38:24;;;;;;;9.70;7.60;;;;;;;21.82;68.26;99938.50;105301;1257;60560;-63
2023/08/01 02:40:51;;;;;;;9.00;7.00;;;;;;;21.81;68.07;99940.60;105225;1261;60440;-65
2023/08/01 02:43:19;;;;;;;9.20;7.30;;;;;;;21.79;68.19;99943.79;105328;1261;64922;-65
2023/08/01 02:45:47;;;;;;;10.40;7.40;;;;;;;21.80;68.30;99943.81;105498;1261;60512;-63
2023/08/01 02:48:15;;;;;;;8.90;7.20;;;;;;;21.79;68.23;99947.08;105233;1259;62522;-65
2023/08/01 02:50:43;;;;;;;10.20;7.90;;;;;;;21.78;68.49;99941.48;105279;1256;60461;-64
2023/08/01 02:53:10;;;;;;;14.00;7.60;;;;;;;21.79;68.50;99943.49;105408;1258;60614;-64
2023/08/01 02:55:38;;;;;;;8.60;7.00;;;;;;;21.79;68.35;99948.23;105230;1254;65820;-63
2023/08/01 02:58:06;;;;;;;9.40;7.50;;;;;;;21.79;68.50;99952.02;105371;1256;61788;-62
2023/08/01 03:00:37;;;;;;;9.10;7.40;;;;;;;21.78;68.39;99950.14;105257;1255;63851;-64
2023/08/01 03:03:04;;;;;;;8.00;6.60;;;;;;;21.78;68.42;99949.30;105339;1259;60779;-64
2023/08/01 03:05:32;;;;;;;9.30;6.30;;;;;;;21.80;68.71;99948.69;105117;1260;60451;-65
2023/08/01 03:07:59;;;;;;;9.30;6.70;;;;;;;21.81;68.74;99946.77;105118;1256;72881;-63
2023/08/01 03:10:27;;;;;;;7.90;6.30;;;;;;;21.77;68.66;99946.00;105198;1258;60504;-66
2023/08/01 03:13:02;;;;;;;7.30;6.20;;;;;;;21.70;68.63;99947.86;105250;1256;63787;-64
2023/08/01 03:15:30;;;;;;;11.50;6.30;;;;;;;21.66;68.76;99941.97;105080;1259;61195;-65
2023/08/01 03:17:58;;;;;;;8.20;6.50;;;;;;;21.68;68.89;99944.48;105290;1260;59886;-67
2023/08/01 03:20:25;;;;;;;7.60;6.40;;;;;;;21.69;68.71;99945.84;105304;1260;64942;-72
2023/08/01 03:22:53;;;;;;;7.20;5.90;;;;;;;21.67;68.79;99948.69;105545;1260;61160;-70
2023/08/01 03:25:20;;;;;;;8.90;6.10;;;;;;;21.67;68.90;99944.61;105755;1262;62453;-73
2023/08/01 03:27:48;;;;;;;7.70;6.40;;;;;;;21.65;69.09;99942.21;105715;1256;60529;-71
2023/08/01 03:30:16;;;;;;;7.60;6.20;;;;;;;21.63;69.06;99940.95;105535;1255;60362;-73
2023/08/01 03:32:43;;;;;;;8.30;5.90;;;;;;;21.63;69.13;99948.36;105167;1256;63842;-66
2023/08/01 03:35:11;;;;;;;7.40;5.90;;;;;;;21.66;69.11;99950.16;105506;1262;61487;-70
2023/08/01 03:37:38;;;;;;;7.50;5.70;;;;;;;21.66;68.96;99952.80;105185;1260;63844;-67
2023/08/01 03:40:08;;;;;;;7.80;6.30;;;;;;;21.63;68.76;99952.36;105186;1256;60546;-69
2023/08/01 03:42:40;;;;;;;7.50;6.10;;;;;;;21.61;68.93;99952.48;105721;1254;60484;-68
2023/08/01 03:45:08;;;;;;;8.90;6.00;;;;;;;21.57;68.93;99955.45;105795;1256;64936;-70
2023/08/01 03:47:36;;;;;;;7.80;5.80;;;;;;;21.54;69.01;99954.30;105642;1261;62568;-71
2023/08/01 03:50:04;;;;;;;7.90;6.20;;;;;;;21.52;68.98;99957.66;105660;1257;62505;-67
2023/08/01 03:52:32;;;;;;;6.50;5.60;;;;;;;21.55;69.09;99958.02;105854;1259;60570;-73
2023/08/01 03:54:59;;;;;;;7.90;6.20;;;;;;;21.58;68.97;99958.15;105529;1261;60375;-66
2023/08/01 03:57:27;;;;;;;10.40;6.10;;;;;;;21.61;68.88;99959.02;105729;1256;64933;-69
2023/08/01 03:59:55;;;;;;;7.60;6.10;;;;;;;21.65;68.95;99953.34;105287;1262;60412;-65
2023/08/01 04:02:22;;;;;;;8.30;6.90;;;;;;;21.66;68.82;99950.25;105709;1259;63709;-65
2023/08/01 04:04:50;;;;;;;8.30;6.90;;;;;;;21.62;68.67;99952.76;105197;1260;60431;-69
2023/08/01 04:07:18;;;;;;;8.80;6.50;;;;;;;21.60;68.85;99948.98;105476;1259;60532;-67
2023/08/01 04:09:46;;;;;;;7.10;5.90;;;;;;;21.63;68.83;99940.53;105389;1256;64927;-70
2023/08/01 04:12:13;;;;;;;8.00;6.30;;;;;;;21.69;68.77;99939.75;105617;1260;61341;-65
2023/08/01 04:14:42;;;;;;;7.60;6.00;;;;;;;21.72;68.78;99940.73;105280;1260;64228;-62
2023/08/01 04:17:09;;;;;;;8.00;6.50;;;;;;;21.77;68.87;99942.22;105550;1258;60432;-70
2023/08/01 04:19:36;;;;;;;6.70;5.40;;;;;;;21.83;68.88;99946.94;105370;1256;60574;-63
2023/08/01 04:22:04;;;;;;;7.80;6.10;;;;;;;21.86;68.64;99948.99;105357;1259;65089;-60
2023/08/01 04:24:32;;;;;;;7.40;5.70;;;;;;;21.87;68.72;99945.38;105342;1256;61307;-67
2023/08/01 04:26:59;;;;;;;7.60;5.90;;;;;;;21.85;68.46;99949.63;105381;1256;74919;-67
2023/08/01 04:29:27;;;;;;;9.20;5.90;;;;;;;21.84;68.10;99949.96;105239;1259;60673;-66
2023/08/01 04:31:55;;;;;;;8.90;6.50;;;;;;;21.83;68.15;99957.33;105217;1259;60770;-61
2023/08/01 04:34:22;;;;;;;8.00;6.30;;;;;;;21.82;68.26;99957.61;105352;1254;64867;-68
2023/08/01 04:36:51;;;;;;;8.70;7.30;;;;;;;21.82;68.30;99957.70;105464;1260;69219;-69
2023/08/01 04:39:18;;;;;;;8.50;7.50;;;;;;;21.82;68.26;99958.16;105434;1257;63728;-66
2023/08/01 04:41:46;;;;;;;8.60;6.50;;;;;;;21.80;68.22;99958.48;105492;1257;60539;-66
2023/08/01 04:44:13;;;;;;;8.20;6.80;;;;;;;21.79;68.41;99959.15;105392;1256;61208;-67
2023/08/01 04:46:41;;;;;;;8.70;6.40;;;;;;;21.79;68.40;99961.21;105346;1260;64961;-71
2023/08/01 04:49:09;;;;;;;6.80;5.30;;;;;;;21.83;68.24;99960.55;105416;1262;62502;-69
2023/08/01 04:51:37;;;;;;;6.70;4.80;;;;;;;21.86;68.04;99959.30;105473;1261;63732;-71
2023/08/01 04:54:04;;;;;;;6.40;4.60;;;;;;;21.87;68.30;99959.06;105426;1256;60517;-67
2023/08/01 04:56:32;;;;;;;7.80;4.80;;;;;;;21.91;68.25;99961.11;105390;1254;60431;-67
2023/08/01 04:59:01;;;;;;;6.50;5.40;;;;;;;21.94;68.12;99963.67;105386;1256;64936;-68
2023/08/01 05:01:29;;;;;;;6.40;4.70;;;;;;;21.96;68.15;99966.56;105649;1257;61882;-66
2023/08/01 05:03:57;;;;;;;6.00;4.50;;;;;;;21.98;68.35;99963.63;105280;1257;63780;-69
2023/08/01 05:06:25;;;;;;;7.30;5.00;;;;;;;22.03;68.16;99968.35;105214;1256;61070;-57
2023/08/01 05:08:53;;;;;;;6.20;4.60;;;;;;;22.09;67.77;99966.86;105185;1256;60471;-57
2023/08/01 05:11:21;;;;;;;7.10;5.20;;;;;;;22.11;67.64;99967.48;105171;1256;311545;-57
2023/08/01 05:13:48;;;;;;;6.10;4.40;;;;;;;22.14;67.73;99966.98;105342;1260;61317;-59
2023/08/01 05:27:49;;;;;;;5.80;4.60;;;;;;;22.44;67.68;99973.80;102695;1285;606788;-55
2023/08/01 05:30:16;;;;;;;6.10;4.90;;;;;;;23.09;65.90;99974.69;104817;1264;100597;-56
2023/08/01 05:32:45;;;;;;;5.60;4.10;;;;;;;23.16;65.61;99978.66;105407;1264;59292;-56
2023/08/01 05:35:12;;;;;;;5.70;4.60;;;;;;;23.16;64.99;99978.83;104704;1269;63320;-57
2023/08/01 05:37:39;;;;;;;5.50;3.80;;;;;;;23.12;65.09;99981.41;104790;1269;61520;-57
2023/08/01 05:40:06;;;;;;;5.10;3.40;;;;;;;23.09;65.18;99982.66;104856;1264;62570;-56
2023/08/01 05:42:33;;;;;;;4.90;3.60;;;;;;;23.05;65.21;99988.06;104999;1264;59265;-56
2023/08/01 05:45:00;;;;;;;5.40;4.00;;;;;;;22.99;65.31;99991.77;105023;1264;59596;-55
2023/08/01 05:47:27;;;;;;;5.40;3.70;;;;;;;22.92;65.56;99989.86;105141;1268;63271;-57
2023/08/01 05:49:53;;;;;;;7.60;3.50;;;;;;;22.89;65.79;99987.15;104753;1267;62691;-68
2023/08/01 05:52:20;;;;;;;4.70;3.40;;;;;;;22.88;65.86;99987.58;104898;1267;64045;-71
2023/08/01 05:54:47;;;;;;;5.30;3.80;;;;;;;22.90;65.90;99985.44;104836;1263;59633;-69
2023/08/01 05:57:13;;;;;;;5.70;3.40;;;;;;;22.92;65.83;99988.49;104903;1266;59630;-63
2023/08/01 05:59:40;;;;;;;5.20;3.70;;;;;;;22.94;65.83;99986.96;105031;1266;64287;-64
2023/08/01 06:02:07;;;;;;;5.90;3.80;;;;;;;22.92;65.94;99984.84;104983;1260;61725;-64
2023/08/01 06:04:33;;;;;;;5.60;3.10;;;;;;;22.94;65.88;99983.75;104888;1261;62589;-66
2023/08/01 06:07:00;;;;;;;5.00;3.60;;;;;;;23.01;65.94;99985.40;104869;1261;59761;-63
2023/08/01 06:09:27;;;;;;;4.80;3.10;;;;;;;23.09;65.69;99987.69;104966;1265;59679;-63
2023/08/01 06:11:54;;;;;;;5.20;3.50;;;;;;;23.13;65.13;99983.91;104947;1265;64221;-71
2023/08/01 06:14:20;;;;;;;5.90;3.60;;;;;;;23.15;65.02;99982.77;104886;1261;61673;-67
2023/08/01 06:16:47;;;;;;;6.40;3.50;;;;;;;23.17;64.98;99986.20;104981;1261;63838;-60
2023/08/01 06:19:13;;;;;;;5.40;3.30;;;;;;;23.17;64.69;99982.49;104943;1265;59676;-67
2023/08/01 06:21:40;;;;;;;7.60;3.20;;;;;;;23.20;64.62;99981.31;105162;1263;59769;-68
2023/08/01 06:24:08;;;;;;;4.90;2.70;;;;;;;23.25;64.45;99979.97;105139;1266;65039;-64
2023/08/01 06:26:35;;;;;;;6.50;3.20;;;;;;;23.32;64.10;99978.98;105221;1263;61653;-68
2023/08/01 06:29:02;;;;;;;4.50;2.90;;;;;;;23.37;63.92;99975.17;105020;1264;63905;-63
2023/08/01 06:31:28;;;;;;;5.20;3.30;;;;;;;23.41;63.55;99978.75;105062;1263;59717;-60
2023/08/01 06:33:55;;;;;;;5.00;3.30;;;;;;;23.45;63.52;99978.52;104977;1261;59675;-64
2023/08/01 06:36:22;;;;;;;5.50;2.90;;;;;;;23.54;63.67;99984.10;105103;1265;64302;-59
2023/08/01 06:38:49;;;;;;;4.80;3.20;;;;;;;23.66;63.61;99979.84;104923;1264;61505;-59
2023/08/01 06:41:16;;;;;;;4.70;2.90;;;;;;;23.80;63.53;99984.00;105058;1265;63853;-60
2023/08/01 06:43:42;;;;;;;4.70;3.20;;;;;;;23.89;62.91;99980.23;104913;1261;59651;-60
2023/08/01 06:46:09;;;;;;;6.10;3.70;;;;;;;23.96;62.72;99977.48;104887;1261;59866;-59
2023/08/01 06:48:36;;;;;;;7.90;3.20;;;;;;;24.02;62.30;99976.59;104986;1264;62940;-61
2023/08/01 06:51:03;;;;;;;6.00;3.20;;;;;;;24.05;62.19;99975.20;104939;1263;60377;-60
2023/08/01 06:53:30;;;;;;;5.80;3.60;;;;;;;24.11;62.24;99974.56;104925;1266;63886;-63
2023/08/01 06:55:56;;;;;;;5.70;3.20;;;;;;;24.18;61.87;99970.69;106004;1260;59650;-67
2023/08/01 06:58:23;;;;;;;6.70;3.50;;;;;;;24.25;61.42;99970.04;105064;1265;59653;-61
2023/08/01 07:00:50;;;;;;;5.10;3.20;;;;;;;24.31;61.24;99967.86;105302;1265;65742;-60
2023/08/01 07:03:17;;;;;;;6.20;3.40;;;;;;;24.40;61.11;99965.42;104901;1260;61887;-61
2023/08/01 07:05:44;;;;;;;5.40;3.40;;;;;;;24.47;60.93;99960.23;104932;1264;64029;-59
2023/08/01 07:08:10;;;;;;;5.80;3.90;;;;;;;24.53;60.99;99958.02;104951;1261;59765;-60
2023/08/01 07:10:38;;;;;;;5.30;3.10;;;;;;;24.62;60.56;99961.62;104954;1261;59756;-59
2023/08/01 07:13:04;;;;;;;5.50;3.40;;;;;;;24.72;59.37;99959.63;105063;1263;64189;-62
2023/08/01 07:15:32;;;;;;;5.40;3.50;;;;;;;24.81;59.09;99963.83;105144;1263;60190;-60
2023/08/01 07:17:59;;;;;;;5.20;3.00;;;;;;;24.89;58.89;99962.45;105095;1260;64110;-60
2023/08/01 07:20:26;;;;;;;5.30;3.00;;;;;;;24.94;57.44;99962.41;105065;1260;59611;-61
2023/08/01 07:22:53;;;;;;;7.00;2.40;;;;;;;24.99;56.89;99967.86;105358;1260;59752;-60
2023/08/01 07:25:20;;;;;;;5.30;3.00;;;;;;;24.99;56.00;99966.20;105291;1263;64254;-60
2023/08/01 07:27:46;;;;;;;4.80;2.60;;;;;;;24.96;55.67;99966.54;105149;1261;61791;-61
2023/08/01 07:30:13;;;;;;;5.30;3.20;;;;;;;24.91;55.26;99972.64;104995;1260;64025;-61
2023/08/01 07:32:41;;;;;;;5.60;3.20;;;;;;;24.89;55.29;99975.34;105121;1260;59739;-60
2023/08/01 07:35:09;;;;;;;5.80;3.10;;;;;;;24.88;55.37;99974.77;104997;1261;59813;-60
2023/08/01 07:37:37;;;;;;;6.60;3.50;;;;;;;24.86;55.16;99973.48;105126;1260;64348;-60
2023/08/01 07:40:05;;;;;;;4.60;2.70;;;;;;;24.89;55.02;99973.29;105164;1261;61465;-60
2023/08/01 07:42:33;;;;;;;5.00;3.00;;;;;;;24.97;54.96;99973.18;105202;1260;63839;-59
2023/08/01 07:45:00;;;;;;;5.50;3.40;;;;;;;25.05;55.24;99972.38;105189;1261;59729;-58
2023/08/01 07:47:26;;;;;;;5.80;3.80;;;;;;;25.13;55.16;99973.06;105084;1260;59753;-59
2023/08/01 07:49:53;;;;;;;5.60;3.40;;;;;;;25.19;55.77;99966.49;105214;1261;64305;-60
2023/08/01 07:52:20;;;;;;;6.30;3.50;;;;;;;25.26;56.15;99965.95;105046;1260;61863;-60
2023/08/01 07:54:47;;;;;;;6.30;3.20;;;;;;;25.34;56.31;99967.78;105006;1263;63830;-60
2023/08/01 07:57:14;;;;;;;5.20;2.70;;;;;;;25.45;55.71;99962.62;105163;1259;59572;-60
2023/08/01 07:59:40;;;;;;;6.40;3.20;;;;;;;25.55;54.97;99962.86;105579;1254;59730;-61
2023/08/01 08:02:07;;;;;;;5.20;3.10;;;;;;;25.64;54.80;99967.98;105439;1257;64194;-63
2023/08/01 08:04:34;;;;;;;4.90;2.50;;;;;;;25.71;53.76;99969.70;105675;1254;61863;-59
2023/08/01 08:07:01;;;;;;;4.70;3.00;;;;;;;25.73;53.07;99968.09;105704;1254;63899;-62
2023/08/01 08:09:27;;;;;;;5.20;2.90;;;;;;;25.77;53.13;99966.39;105684;1254;59513;-61
2023/08/01 08:11:57;;;;;;;7.10;3.80;;;;;;;25.80;53.32;99969.05;105701;1254;59663;-61
2023/08/01 08:14:24;;;;;;;6.10;3.50;;;;;;;25.82;53.44;99966.52;105551;1256;64435;-64
2023/08/01 08:16:51;;;;;;;7.00;3.80;;;;;;;25.85;53.38;99969.00;105502;1257;61405;-64
2023/08/01 08:19:18;;;;;;;26.90;10.50;;;;;;;25.88;53.27;99969.17;105551;1254;63828;-62
2023/08/01 08:21:45;;;;;;;13.50;7.40;;;;;;;25.89;53.19;99969.59;105677;1254;59551;-63
2023/08/01 08:24:11;;;;;;;7.70;5.00;;;;;;;25.92;53.53;99969.84;105620;1257;59679;-61
2023/08/01 08:26:39;;;;;;;7.10;4.10;;;;;;;26.03;53.82;99969.19;105552;1257;64202;-62
2023/08/01 08:29:07;;;;;;;6.20;3.70;;;;;;;26.18;53.76;99966.49;105664;1256;61650;-60
2023/08/01 08:31:33;;;;;;;5.80;3.60;;;;;;;26.31;53.34;99964.63;105455;1254;63958;-61
2023/08/01 08:34:00;;;;;;;6.20;3.40;;;;;;;26.45;53.18;99964.31;105790;1255;59613;-61
2023/08/01 08:36:27;;;;;;;6.90;4.40;;;;;;;26.58;53.04;99959.58;105848;1254;59665;-59
2023/08/01 08:38:54;;;;;;;5.70;3.20;;;;;;;26.72;52.39;99959.07;105618;1253;64239;-60
2023/08/01 08:41:23;;;;;;;7.50;4.40;;;;;;;26.85;52.33;99962.00;105588;1254;62138;-59
2023/08/01 08:43:50;;;;;;;5.70;3.60;;;;;;;26.96;52.32;99958.81;106236;1255;63757;-60
2023/08/01 08:46:17;;;;;;;6.50;4.10;;;;;;;27.04;51.24;99952.27;105434;1254;59841;-60
2023/08/01 08:48:46;;;;;;;6.70;4.10;;;;;;;27.10;51.11;99951.52;105664;1254;59771;-60
2023/08/01 08:51:13;;;;;;;6.80;4.30;;;;;;;27.16;51.34;99950.80;105558;1254;63326;-61
2023/08/01 08:53:40;;;;;;;7.10;4.30;;;;;;;27.23;51.18;99951.27;105507;1254;61698;-60
2023/08/01 08:56:08;;;;;;;6.10;4.20;;;;;;;27.29;51.39;99949.57;105638;1258;64908;-61
2023/08/01 08:58:36;;;;;;;7.00;4.00;;;;;;;27.32;51.83;99945.70;105555;1254;59698;-61
2023/08/01 09:01:03;;;;;;;6.10;3.60;;;;;;;27.37;51.74;99946.60;105858;1254;59564;-60
2023/08/01 09:03:30;;;;;;;6.20;3.70;;;;;;;27.43;51.80;99949.95;105716;1258;64946;-61
2023/08/01 09:06:04;;;;;;;5.80;4.00;;;;;;;27.49;51.96;99950.09;105368;1254;62223;-61
2023/08/01 09:08:32;;;;;;;5.80;3.90;;;;;;;27.55;51.57;99946.52;105667;1260;62761;-65
2023/08/01 09:10:59;;;;;;;6.50;4.40;;;;;;;27.61;50.63;99944.02;105363;1255;59755;-65
2023/08/01 09:13:26;;;;;;;9.70;5.50;;;;;;;27.66;50.61;99943.98;105895;1255;59676;-61
2023/08/01 09:15:52;;;;;;;6.10;4.30;;;;;;;27.71;50.13;99944.11;105709;1258;64281;-61
2023/08/01 09:18:20;;;;;;;7.50;4.60;;;;;;;27.75;49.50;99939.27;105280;1254;61771;-61
2023/08/01 09:20:48;;;;;;;18.60;7.60;;;;;;;27.80;49.81;99933.77;105651;1254;63780;-65
2023/08/01 09:23:15;;;;;;;7.70;4.50;;;;;;;27.87;51.11;99925.70;105550;1254;59589;-61
2023/08/01 09:25:42;;;;;;;34.80;11.00;;;;;;;27.96;51.68;99924.39;105399;1255;59570;-64
2023/08/01 09:28:20;;;;;;;6.60;3.90;;;;;;;28.08;51.96;99921.95;105744;1257;64295;-65
2023/08/01 09:30:48;;;;;;;11.80;6.20;;;;;;;28.19;51.12;99917.02;105527;1254;61560;-61
2023/08/01 09:33:15;;;;;;;6.70;4.30;;;;;;;28.29;50.55;99917.42;105391;1260;63941;-62
2023/08/01 09:35:42;;;;;;;6.30;3.90;;;;;;;28.35;49.72;99913.27;105330;1254;60523;-64
2023/08/01 09:38:10;;;;;;;7.90;3.40;;;;;;;28.42;50.08;99913.31;105619;1254;61775;-61
2023/08/01 09:40:38;;;;;;;5.90;4.00;;;;;;;28.49;49.69;99912.14;105374;1260;64908;-63
2023/08/01 09:43:04;;;;;;;5.80;3.40;;;;;;;28.55;49.44;99906.64;105728;1254;62613;-62
2023/08/01 09:45:31;;;;;;;6.60;3.50;;;;;;;28.56;48.38;99904.88;105421;1255;63888;-73
2023/08/01 09:47:58;;;;;;;5.90;3.60;;;;;;;28.55;48.91;99912.44;105257;1254;60489;-62
2023/08/01 09:50:25;;;;;;;6.20;3.00;;;;;;;28.50;48.79;99913.55;105492;1254;60431;-61
2023/08/01 09:52:52;;;;;;;6.10;3.40;;;;;;;28.46;49.05;99913.19;105577;1259;65223;-60
2023/08/01 09:55:38;;;;;;;9.00;4.10;;;;;;;28.43;48.78;99906.00;105574;1259;61591;-60
2023/08/01 09:58:05;;;;;;;6.40;3.50;;;;;;;28.43;49.45;99906.54;105420;1260;64403;-60
2023/08/01 10:00:34;;;;;;;6.20;3.30;;;;;;;28.45;49.49;99903.01;105434;1254;60549;-61
2023/08/01 10:03:01;;;;;;;5.90;3.00;;;;;;;28.49;49.50;99903.64;105497;1255;60404;-61
2023/08/01 10:05:30;;;;;;;5.40;3.10;;;;;;;28.55;49.85;99899.12;105577;1257;65099;-60
2023/08/01 10:07:58;;;;;;;7.10;3.10;;;;;;;28.62;49.90;99899.70;105632;1257;61784;-57
2023/08/01 10:10:25;;;;;;;5.30;3.30;;;;;;;28.69;49.51;99898.48;105273;1257;66457;-57
2023/08/01 10:12:52;;;;;;;4.80;3.10;;;;;;;28.73;49.35;99897.87;105299;1259;60497;-58
2023/08/01 10:15:18;;;;;;;4.80;2.80;;;;;;;28.81;48.74;99893.45;109247;1254;58352;-58
2023/08/01 10:17:45;;;;;;;4.70;3.10;;;;;;;28.89;47.75;99892.27;109173;1254;64989;-60
2023/08/01 10:20:12;;;;;;;4.50;2.70;;;;;;;28.98;48.11;99891.12;106123;1256;60387;-59
2023/08/01 10:22:40;;;;;;;5.40;3.10;;;;;;;29.09;47.48;99893.60;105560;1257;63880;-59
2023/08/01 10:25:07;;;;;;;5.00;3.20;;;;;;;29.20;47.23;99887.48;105389;1253;60563;-63
2023/08/01 10:27:35;;;;;;;6.20;3.20;;;;;;;29.31;47.59;99883.23;105966;1260;60444;-71
2023/08/01 10:30:04;;;;;;;5.50;3.00;;;;;;;29.39;47.70;99885.14;105511;1259;64995;-60
2023/08/01 10:32:38;;;;;;;5.40;2.90;;;;;;;29.43;47.28;99885.98;105483;1259;61975;-59
2023/08/01 10:35:06;;;;;;;4.80;2.80;;;;;;;29.44;47.20;99883.94;105608;1255;63936;-61
2023/08/01 10:37:41;;;;;;;5.10;3.00;;;;;;;29.42;47.50;99883.23;105720;1254;60572;-61
2023/08/01 10:40:08;;;;;;;4.60;3.10;;;;;;;29.37;46.67;99875.17;105803;1255;60581;-60
2023/08/01 10:42:42;;;;;;;4.60;2.80;;;;;;;29.30;46.63;99870.93;105601;1256;65229;-59
2023/08/01 10:45:23;;;;;;;5.20;2.90;;;;;;;29.24;46.54;99868.89;105488;1260;60482;-61
2023/08/01 10:47:50;;;;;;;5.10;3.00;;;;;;;29.26;45.73;99868.95;105306;1256;64034;-60
2023/08/01 10:50:17;;;;;;;6.10;3.10;;;;;;;29.27;44.97;99866.96;109323;1254;58187;-58
2023/08/01 10:52:46;;;;;;;4.90;2.90;;;;;;;29.29;45.10;99867.67;109376;1254;58961;-59
2023/08/01 10:55:13;;;;;;;4.70;2.70;;;;;;;29.32;45.10;99870.08;109310;1254;64946;-59
2023/08/01 10:57:48;;;;;;;6.20;3.40;;;;;;;29.34;44.84;99864.67;109380;1254;61582;-60
2023/08/01 11:00:17;;;;;;;5.50;3.30;;;;;;;29.39;45.26;99856.85;109287;1256;62840;-58
2023/08/01 11:02:49;;;;;;;4.50;3.10;;;;;;;29.39;45.78;99850.63;107615;1256;60561;-59
2023/08/01 11:05:15;;;;;;;5.60;3.10;;;;;;;29.35;46.13;99857.53;105639;1258;59441;-60
2023/08/01 11:07:42;;;;;;;6.00;3.10;;;;;;;29.24;44.90;99859.73;105559;1260;65135;-62
2023/08/01 11:10:11;;;;;;;4.60;2.80;;;;;;;29.11;45.33;99863.77;105400;1260;61659;-60
2023/08/01 11:12:39;;;;;;;5.20;3.40;;;;;;;29.05;45.66;99864.98;105647;1257;64107;-62
2023/08/01 11:15:10;;;;;;;5.00;3.30;;;;;;;29.03;45.91;99867.33;105625;1257;60454;-61
2023/08/01 11:17:38;;;;;;;5.90;3.80;;;;;;;29.01;46.07;99860.17;105511;1255;60360;-60
2023/08/01 11:20:07;;;;;;;6.30;3.60;;;;;;;29.00;46.25;99860.75;105657;1257;65129;-60
2023/08/01 11:22:34;;;;;;;5.60;3.80;;;;;;;28.99;46.92;99856.40;105776;1257;61722;-60
2023/08/01 11:25:02;;;;;;;5.20;3.60;;;;;;;29.03;47.74;99855.37;105508;1266;64361;-60
2023/08/01 11:27:28;;;;;;;5.20;3.10;;;;;;;29.10;47.80;99851.69;106207;1260;60535;-61
2023/08/01 11:29:56;;;;;;;4.70;2.90;;;;;;;29.16;47.28;99849.41;105433;1254;60549;-61
2023/08/01 11:32:33;;;;;;;5.40;3.30;;;;;;;29.21;46.88;99848.00;105592;1257;65012;-61
2023/08/01 11:35:00;;;;;;;6.20;3.40;;;;;;;29.24;47.16;99846.30;105594;1254;61688;-60
2023/08/01 11:37:27;;;;;;;6.40;4.20;;;;;;;29.25;47.13;99845.39;105625;1259;63997;-60